createdAt,value
2019-04-25T00:04:22.928Z,17.64
2019-04-25T00:09:32.299Z,17.64
2019-04-25T00:14:40.095Z,17.77
2019-04-25T00:19:48.599Z,17.83
2019-04-25T00:25:17.553Z,17.83
2019-04-25T00:30:24.561Z,17.85
2019-04-25T00:35:31.580Z,17.69
2019-04-25T00:40:38.573Z,17.60
2019-04-25T00:45:45.778Z,17.54
2019-04-25T00:50:54.536Z,17.54
2019-04-25T00:56:01.617Z,17.38
2019-04-25T01:01:21.869Z,17.13
2019-04-25T01:06:29.514Z,16.96
2019-04-25T01:11:36.595Z,16.85
2019-04-25T01:16:44.939Z,16.70
2019-04-25T01:21:54.794Z,16.70
2019-04-25T01:27:00.300Z,16.67
2019-04-25T01:32:09.282Z,16.63
2019-04-25T01:37:34.075Z,16.63
2019-04-25T01:42:59.547Z,16.71
2019-04-25T01:48:08.231Z,16.71
2019-04-25T01:53:14.650Z,16.74
2019-04-25T01:58:21.589Z,16.77
2019-04-25T02:03:29.023Z,16.84
2019-04-25T02:08:36.571Z,16.84
2019-04-25T02:13:43.838Z,16.90
2019-04-25T02:18:52.448Z,16.90
2019-04-25T02:24:00.585Z,16.90
2019-04-25T02:29:07.931Z,16.80
2019-04-25T02:34:18.064Z,16.80
2019-04-25T02:39:25.261Z,16.76
2019-04-25T02:44:34.592Z,16.72
2019-04-25T02:50:03.491Z,16.66
2019-04-25T02:55:12.709Z,16.66
2019-04-25T03:00:45.945Z,16.66
2019-04-25T03:05:38.620Z,16.62
2019-04-25T03:10:45.585Z,16.60
2019-04-25T03:15:53.536Z,16.54
2019-04-25T03:21:13.374Z,16.54
2019-04-25T03:26:15.471Z,16.49
2019-04-25T03:31:26.714Z,16.49
2019-04-25T03:36:31.577Z,16.49
2019-04-25T03:41:38.557Z,16.54
2019-04-25T03:46:45.617Z,16.54
2019-04-25T03:51:53.852Z,16.57
2019-04-25T03:57:02.472Z,16.57
2019-04-25T04:02:10.943Z,16.53
2019-04-25T04:07:18.540Z,16.46
2019-04-25T04:12:25.583Z,16.32
2019-04-25T04:17:47.098Z,16.23
2019-04-25T04:23:01.389Z,16.23
2019-04-25T04:28:09.769Z,16.12
2019-04-25T04:33:29.823Z,16.03
2019-04-25T04:38:24.310Z,15.91
2019-04-25T04:43:31.504Z,15.82
2019-04-25T04:48:38.591Z,15.75
2019-04-25T04:53:45.520Z,15.59
2019-04-25T04:58:53.971Z,15.59
2019-04-25T05:04:25.226Z,15.51
2019-04-25T05:09:33.481Z,15.30
2019-04-25T05:14:40.455Z,15.30
2019-04-25T05:19:47.579Z,15.31
2019-04-25T05:24:54.558Z,15.32
2019-04-25T05:30:01.579Z,15.32
2019-04-25T05:35:08.892Z,15.32
2019-04-25T05:40:17.164Z,15.32
2019-04-25T05:45:27.526Z,15.29
2019-04-25T05:50:34.582Z,15.28
2019-04-25T05:55:41.568Z,15.32
2019-04-25T06:00:50.272Z,15.41
2019-04-25T06:05:57.503Z,15.41
2019-04-25T06:11:26.243Z,15.59
2019-04-25T06:16:35.241Z,15.83
2019-04-25T06:21:43.533Z,16.14
2019-04-25T06:27:22.122Z,16.36
2019-04-25T06:32:29.498Z,16.46
2019-04-25T06:37:36.460Z,16.85
2019-04-25T06:42:46.451Z,16.85
2019-04-25T06:48:03.989Z,17.21
2019-04-25T06:53:13.579Z,17.21
2019-04-25T06:58:21.419Z,17.35
2019-04-25T07:03:29.618Z,17.51
2019-04-25T07:08:36.584Z,17.44
2019-04-25T07:13:43.932Z,17.49
2019-04-25T07:18:51.482Z,17.49
2019-04-25T07:23:58.510Z,17.47
2019-04-25T07:29:23.538Z,17.55
2019-04-25T07:34:30.717Z,17.73
2019-04-25T07:39:37.589Z,17.90
2019-04-25T07:44:51.965Z,17.94
2019-04-25T07:49:54.212Z,17.94
2019-04-25T07:55:01.473Z,17.98
2019-04-25T08:00:14.701Z,18.20
2019-04-25T08:05:22.067Z,18.20
2019-04-25T08:10:35.983Z,18.31
2019-04-25T08:15:50.278Z,18.31
2019-04-25T08:20:57.616Z,18.41
2019-04-25T08:26:04.620Z,18.72
2019-04-25T08:31:13.434Z,18.94
2019-04-25T08:36:20.599Z,18.94
2019-04-25T08:41:27.546Z,19.52
2019-04-25T08:46:36.765Z,19.52
2019-04-25T08:51:44.506Z,19.78
2019-04-25T08:56:53.173Z,20.15
2019-04-25T09:02:23.512Z,20.89
2019-04-25T09:07:30.589Z,21.94
2019-04-25T09:12:37.778Z,23.46
2019-04-25T09:17:47.044Z,23.46
2019-04-25T09:22:54.307Z,24.12
2019-04-25T09:28:01.577Z,24.73
2019-04-25T09:33:09.452Z,25.29
2019-04-25T09:38:16.588Z,25.89
2019-04-25T09:43:23.600Z,27.05
2019-04-25T09:48:44.294Z,27.63
2019-04-25T09:53:57.718Z,27.63
2019-04-25T09:59:13.789Z,28.25
2019-04-25T10:04:22.956Z,28.57
2019-04-25T10:09:30.552Z,28.74
2019-04-25T10:15:42.996Z,28.53
2019-04-25T10:20:52.100Z,28.66
2019-04-25T10:25:59.494Z,28.66
2019-04-25T10:31:06.591Z,28.59
2019-04-25T10:36:14.600Z,28.84
2019-04-25T10:41:22.260Z,28.84
2019-04-25T10:46:29.446Z,28.91
2019-04-25T10:51:36.450Z,28.98
2019-04-25T10:56:45.661Z,29.06
2019-04-25T11:01:53.868Z,29.08
2019-04-25T11:07:03.618Z,29.02
2019-04-25T11:12:14.532Z,28.94
2019-04-25T11:17:20.572Z,28.72
2019-04-25T11:22:27.542Z,28.79
2019-04-25T11:27:34.739Z,28.88
2019-04-25T11:32:44.784Z,29.06
2019-04-25T11:37:52.845Z,29.43
2019-04-25T11:42:59.584Z,29.74
2019-04-25T11:48:07.248Z,30.19
2019-04-25T11:53:13.324Z,30.19
2019-04-25T11:58:20.614Z,30.47
2019-04-25T12:03:27.948Z,31.40
2019-04-25T12:10:10.482Z,31.46
2019-04-25T12:15:16.311Z,32.46
2019-04-25T12:20:22.487Z,32.55
2019-04-25T12:25:29.550Z,32.90
2019-04-25T12:30:40.168Z,33.37
2019-04-25T12:35:45.435Z,33.88
2019-04-25T12:40:54.169Z,34.32
2019-04-25T12:46:20.247Z,34.54
2019-04-25T12:51:28.057Z,34.92
2019-04-25T12:56:35.257Z,35.00
2019-04-25T13:01:43.419Z,34.87
2019-04-25T13:06:50.582Z,35.19
2019-04-25T13:11:57.457Z,35.00
2019-04-25T13:17:08.016Z,34.41
2019-04-25T13:22:13.995Z,34.37
2019-04-25T13:28:26.991Z,34.06
2019-04-25T13:34:01.575Z,34.01
2019-04-25T13:39:16.342Z,34.62
2019-04-25T13:44:24.413Z,35.47
2019-04-25T13:49:31.675Z,36.14
2019-04-25T13:54:43.677Z,36.62
2019-04-25T13:59:50.587Z,36.94
2019-04-25T14:04:57.556Z,37.11
2019-04-25T14:10:10.574Z,37.11
2019-04-25T14:15:20.981Z,36.96
2019-04-25T14:20:34.419Z,36.75
2019-04-25T14:25:41.443Z,36.01
2019-04-25T14:30:48.581Z,36.60
2019-04-25T14:35:55.463Z,37.03
2019-04-25T14:41:02.476Z,37.03
2019-04-25T14:46:09.568Z,36.89
2019-04-25T14:51:16.616Z,36.77
2019-04-25T14:56:35.260Z,37.01
2019-04-25T15:01:44.943Z,37.01
2019-04-25T15:06:49.722Z,37.36
2019-04-25T15:11:56.558Z,37.41
2019-04-25T15:17:05.230Z,36.48
2019-04-25T15:22:11.310Z,36.48
2019-04-25T15:27:17.271Z,36.82
2019-04-25T15:32:27.577Z,37.29
2019-04-25T15:37:44.600Z,37.42
2019-04-25T15:43:07.244Z,36.99
2019-04-25T15:48:14.393Z,37.55
2019-04-25T15:53:22.097Z,37.37
2019-04-25T15:58:29.808Z,37.33
2019-04-25T16:03:36.914Z,37.20
2019-04-25T16:08:44.300Z,37.26
2019-04-25T16:13:51.603Z,35.87
2019-04-25T16:18:58.873Z,36.11
2019-04-25T16:24:06.504Z,36.11
2019-04-25T16:29:14.654Z,36.48
2019-04-25T16:34:21.684Z,36.47
2019-04-25T16:39:30.984Z,36.47
2019-04-25T16:44:37.311Z,36.13
2019-04-25T16:49:43.268Z,35.50
2019-04-25T16:54:50.413Z,35.17
2019-04-25T16:59:57.491Z,35.19
2019-04-25T17:05:04.698Z,35.34
2019-04-25T17:10:12.603Z,35.43
2019-04-25T17:15:32.052Z,34.78
2019-04-25T17:20:47.923Z,34.78
2019-04-25T17:25:53.960Z,34.55
2019-04-25T17:31:14.250Z,34.20
2019-04-25T17:36:39.294Z,33.26
2019-04-25T17:41:46.518Z,32.05
2019-04-25T17:46:52.360Z,30.85
2019-04-25T17:51:59.592Z,29.91
2019-04-25T17:57:07.456Z,28.36
2019-04-25T18:02:14.859Z,28.36
2019-04-25T18:07:21.879Z,27.23
2019-04-25T18:12:28.964Z,27.23
2019-04-25T18:17:35.016Z,26.76
2019-04-25T18:22:59.283Z,26.35
2019-04-25T18:28:13.943Z,25.95
2019-04-25T18:33:28.643Z,25.58
2019-04-25T18:39:00.525Z,24.82
2019-04-25T18:44:09.544Z,24.82
2019-04-25T18:49:16.599Z,24.49
2019-04-25T18:54:41.280Z,23.80
2019-04-25T19:00:05.569Z,23.80
2019-04-25T19:05:30.548Z,23.54
2019-04-25T19:10:39.409Z,23.27
2019-04-25T19:15:45.318Z,23.03
2019-04-25T19:20:52.591Z,22.83
2019-04-25T19:25:59.612Z,22.41
2019-04-25T19:31:06.625Z,22.24
2019-04-25T19:36:13.591Z,21.94
2019-04-25T19:41:29.258Z,21.87
2019-04-25T19:46:49.293Z,21.87
2019-04-25T19:51:56.588Z,21.72
2019-04-25T19:57:03.628Z,21.56
2019-04-25T20:02:18.122Z,21.29
2019-04-25T20:07:36.528Z,21.29
2019-04-25T20:12:48.510Z,21.15
2019-04-25T20:17:54.471Z,21.03
2019-04-25T20:23:01.605Z,20.79
2019-04-25T20:28:08.622Z,20.68
2019-04-25T20:33:15.521Z,20.59
2019-04-25T20:38:22.624Z,20.59
2019-04-25T20:43:29.575Z,20.38
2019-04-25T20:48:37.443Z,20.29
2019-04-25T20:53:44.608Z,20.29
2019-04-25T20:58:51.869Z,20.07
2019-04-25T21:03:58.626Z,20.07
2019-04-25T21:09:07.258Z,19.94
2019-04-25T21:14:27.430Z,19.94
2019-04-25T21:19:40.411Z,19.84
2019-04-25T21:24:47.574Z,19.75
2019-04-25T21:29:55.552Z,19.65
2019-04-25T21:35:02.558Z,19.58
2019-04-25T21:40:18.161Z,19.46
2019-04-25T21:45:24.316Z,19.46
2019-04-25T21:50:31.461Z,19.43
2019-04-25T21:55:38.773Z,19.38
2019-04-25T22:01:04.530Z,19.35
2019-04-25T22:06:13.483Z,19.33
2019-04-25T22:11:20.492Z,19.30
2019-04-25T22:16:27.588Z,19.28
2019-04-25T22:21:38.092Z,19.28
2019-04-25T22:26:43.619Z,19.29
2019-04-25T22:32:12.677Z,19.29
2019-04-25T22:37:20.263Z,19.31
2019-04-25T22:42:27.505Z,19.29
2019-04-25T22:47:34.460Z,19.27
2019-04-25T22:52:41.498Z,19.25
2019-04-25T22:57:48.448Z,19.18
2019-04-25T23:03:02.315Z,19.14
2019-04-25T23:08:10.142Z,19.10
2019-04-25T23:13:17.421Z,19.03
2019-04-25T23:18:24.668Z,18.97
2019-04-25T23:23:32.385Z,18.77
2019-04-25T23:28:41.586Z,18.77
2019-04-25T23:33:48.487Z,18.67
2019-04-25T23:38:55.602Z,18.67
2019-04-25T23:44:02.976Z,18.60
2019-04-25T23:49:10.626Z,18.57
2019-04-25T23:54:17.688Z,18.52
2019-04-25T23:59:24.583Z,18.44
